Indian Springs, Mississippi
Current Conditions -  °F | °C
As of 5:53 PM on Friday 21 Nov 2014 (Local Time) from KHBG Reporting Station
Clear Clear  
Wind Chill: 58°   Ceiling: Unl
Heat Index: 58°   Visibility: 10mi
Dew Point: 45°   Wind: 0mph
Humidity: 62%   Direction: NA
Pressure: 30.29"   Gusts: NA
Location:  31.1996°N, 89.2694°W
Report Text: KHBG 212353Z AUTO 00000KT 10SM CLR 14/07 A3029 RMK AO2 SLP258 T01440072 10217 20139 51013
Loading
Personal Weather Stations






























Interactive Weather Map New forecast layout! Learn more

10-Day Weather Forecast

Advertisements
Track Severe Weather on mobile